createdAt,value
2023-03-11T00:01:04.942Z,0.30
2023-03-11T00:05:08.127Z,0.43
2023-03-11T00:09:10.311Z,0.63
2023-03-11T00:13:13.739Z,0.50
2023-03-11T00:17:15.659Z,0.60
2023-03-11T00:21:17.912Z,0.63
2023-03-11T00:25:20.445Z,0.73
2023-03-11T00:29:22.265Z,0.60
2023-03-11T00:33:24.218Z,0.97
2023-03-11T00:37:26.063Z,0.80
2023-03-11T00:41:28.814Z,1.20
2023-03-11T00:45:30.767Z,0.83
2023-03-11T00:49:32.969Z,0.97
2023-03-11T00:53:34.864Z,0.70
2023-03-11T00:57:36.633Z,1.03
2023-03-11T01:01:38.525Z,1.00
2023-03-11T01:05:40.621Z,0.90
2023-03-11T01:09:42.458Z,0.77
2023-03-11T01:13:44.250Z,0.70
2023-03-11T01:17:46.241Z,0.83
2023-03-11T01:21:48.029Z,0.80
2023-03-11T01:25:50.000Z,0.80
2023-03-11T01:29:51.727Z,1.40
2023-03-11T01:33:53.648Z,1.03
2023-03-11T01:37:56.032Z,1.47
2023-03-11T01:41:58.028Z,1.20
2023-03-11T01:46:02.171Z,0.90
2023-03-11T01:50:07.174Z,0.83
2023-03-11T01:54:20.897Z,1.30
2023-03-11T01:58:25.859Z,0.90
2023-03-11T02:02:35.330Z,1.67
2023-03-11T02:06:37.120Z,1.23
2023-03-11T02:10:39.575Z,1.20
2023-03-11T02:14:52.048Z,1.30
2023-03-11T02:18:54.039Z,1.20
2023-03-11T02:22:57.407Z,2.43
2023-03-11T02:27:06.343Z,1.40
2023-03-11T02:31:08.440Z,1.50
2023-03-11T02:35:10.359Z,1.73
2023-03-11T02:39:12.186Z,1.70
2023-03-11T02:43:15.913Z,1.70
2023-03-11T02:47:17.723Z,1.83
2023-03-11T02:51:19.660Z,2.20
2023-03-11T02:55:21.580Z,1.10
2023-03-11T02:59:23.421Z,1.47
2023-03-11T03:03:31.570Z,1.40
2023-03-11T03:07:39.554Z,1.03
2023-03-11T03:11:54.542Z,1.50
2023-03-11T03:16:03.606Z,1.10
2023-03-11T03:20:18.490Z,1.30
2023-03-11T03:24:26.540Z,1.50
2023-03-11T03:28:28.509Z,2.33
2023-03-11T03:32:30.243Z,1.93
2023-03-11T03:36:32.107Z,2.93
2023-03-11T03:40:33.864Z,2.97
2023-03-11T03:44:35.715Z,3.13
2023-03-11T03:48:38.258Z,3.00
2023-03-11T03:52:40.064Z,3.33
2023-03-11T03:56:41.832Z,3.60
2023-03-11T04:00:43.687Z,3.67
2023-03-11T04:04:45.532Z,4.20
2023-03-11T04:08:47.411Z,3.50
2023-03-11T04:12:49.315Z,3.80
2023-03-11T04:16:51.295Z,4.10
2023-03-11T04:20:54.719Z,4.73
2023-03-11T04:24:56.596Z,4.27
2023-03-11T04:28:58.450Z,4.73
2023-03-11T04:33:00.388Z,4.40
2023-03-11T04:37:02.375Z,4.73
2023-03-11T04:41:04.915Z,5.83
2023-03-11T04:45:08.086Z,5.00
2023-03-11T04:49:10.445Z,5.47
2023-03-11T04:53:12.503Z,4.87
2023-03-11T04:57:14.351Z,5.40
2023-03-11T05:01:16.297Z,5.17
2023-03-11T05:05:19.580Z,4.97
2023-03-11T05:09:21.623Z,4.70
2023-03-11T05:13:23.473Z,5.83
2023-03-11T05:17:25.426Z,5.27
2023-03-11T05:21:27.727Z,4.23
2023-03-11T05:25:29.609Z,5.00
2023-03-11T05:29:32.004Z,7.07
2023-03-11T05:33:35.927Z,5.20
2023-03-11T05:37:39.260Z,5.07
2023-03-11T05:41:41.418Z,6.07
2023-03-11T05:45:43.294Z,5.87
2023-03-11T05:49:49.359Z,5.90
2023-03-11T05:53:51.299Z,4.73
2023-03-11T05:57:54.351Z,5.23
2023-03-11T06:01:56.241Z,5.57
2023-03-11T06:05:58.115Z,4.80
2023-03-11T06:10:00.130Z,5.03
2023-03-11T06:14:03.080Z,7.10
2023-03-11T06:18:05.023Z,6.23
2023-03-11T06:22:07.039Z,8.43
2023-03-11T06:26:10.228Z,6.90
2023-03-11T06:30:12.649Z,6.87
2023-03-11T06:34:14.464Z,9.30
2023-03-11T06:38:16.273Z,6.97
2023-03-11T06:42:18.345Z,6.90
2023-03-11T06:46:22.124Z,8.10
2023-03-11T06:50:24.110Z,7.30
2023-03-11T06:54:25.901Z,8.07
2023-03-11T06:58:27.943Z,6.20
2023-03-11T07:02:32.767Z,8.83
2023-03-11T07:06:34.707Z,8.50
2023-03-11T07:10:36.991Z,7.23
2023-03-11T07:14:38.843Z,8.40
2023-03-11T07:18:40.806Z,8.20
2023-03-11T07:22:42.803Z,8.43
2023-03-11T07:26:44.745Z,8.03
2023-03-11T07:30:48.621Z,8.97
2023-03-11T07:34:50.423Z,9.00
2023-03-11T07:38:58.427Z,9.63
2023-03-11T07:43:00.286Z,11.43
2023-03-11T07:47:06.226Z,9.03
2023-03-11T07:51:11.206Z,8.37
2023-03-11T07:55:13.138Z,8.63
2023-03-11T07:59:15.230Z,8.73
2023-03-11T08:03:46.317Z,7.33
2023-03-11T08:22:43.445Z,8.20
2023-03-11T08:26:50.643Z,10.17
2023-03-11T08:30:52.547Z,11.80
2023-03-11T08:34:56.081Z,11.03
2023-03-11T08:39:04.361Z,9.57
2023-03-11T08:43:06.427Z,9.20
2023-03-11T08:47:08.575Z,11.90
2023-03-11T08:51:13.550Z,10.20
2023-03-11T08:55:17.976Z,9.73
2023-03-11T08:59:20.153Z,6.63
2023-03-11T09:03:22.350Z,8.30
2023-03-11T09:07:26.296Z,9.93
2023-03-11T09:11:29.908Z,7.00
2023-03-11T09:15:51.529Z,8.23
2023-03-11T09:19:53.581Z,8.73
2023-03-11T09:23:55.808Z,8.60
2023-03-11T09:27:59.645Z,8.20
2023-03-11T09:32:31.375Z,9.00
2023-03-11T09:36:33.573Z,8.37
2023-03-11T09:41:17.494Z,9.33
2023-03-11T09:45:22.224Z,9.03
2023-03-11T09:49:30.720Z,8.80
2023-03-11T09:53:41.845Z,9.83
2023-03-11T09:57:44.306Z,8.07
2023-03-11T10:06:24.072Z,7.57
2023-03-11T10:10:36.359Z,7.27
2023-03-11T10:15:16.693Z,8.87
2023-03-11T10:19:40.621Z,9.30
2023-03-11T10:24:19.286Z,7.60
2023-03-11T10:28:24.339Z,10.33
2023-03-11T10:32:58.681Z,7.47
2023-03-11T10:37:21.342Z,7.67
2023-03-11T10:42:02.378Z,7.87
2023-03-11T10:46:14.381Z,8.03
2023-03-11T10:50:19.599Z,7.70
2023-03-11T10:54:46.303Z,7.63
2023-03-11T10:58:53.312Z,6.17
2023-03-11T11:02:58.414Z,6.63
2023-03-11T11:07:20.655Z,6.97
2023-03-11T11:11:24.008Z,7.07
2023-03-11T11:15:37.193Z,8.27
2023-03-11T11:19:50.326Z,8.13
2023-03-11T11:24:28.463Z,8.23
2023-03-11T11:28:40.164Z,6.60
2023-03-11T11:32:42.424Z,5.13
2023-03-11T11:36:45.028Z,6.67
2023-03-11T11:40:47.125Z,7.23
2023-03-11T11:44:56.303Z,6.13
2023-03-11T11:49:33.523Z,7.47
2023-03-11T11:54:17.551Z,6.37
2023-03-11T11:58:20.601Z,8.00
2023-03-11T12:03:12.563Z,6.50
2023-03-11T12:07:44.899Z,6.63
2023-03-11T12:12:11.593Z,6.83
2023-03-11T12:16:39.833Z,6.63
2023-03-11T12:20:58.445Z,6.60
2023-03-11T12:25:34.963Z,5.63
2023-03-11T12:29:43.124Z,5.03
2023-03-11T12:34:03.168Z,6.57
2023-03-11T12:38:32.865Z,4.60
2023-03-11T12:42:41.256Z,5.20
2023-03-11T12:46:57.969Z,5.87
2023-03-11T12:51:00.068Z,4.67
2023-03-11T12:55:01.820Z,5.37
2023-03-11T12:59:26.357Z,4.70
2023-03-11T13:03:55.812Z,4.73
2023-03-11T13:08:17.832Z,5.93
2023-03-11T13:12:41.589Z,6.97
2023-03-11T13:16:44.006Z,6.47
2023-03-11T13:20:56.164Z,6.80
2023-03-11T13:24:58.060Z,9.30
2023-03-11T13:29:26.292Z,5.93
2023-03-11T13:33:54.656Z,4.87
2023-03-11T13:38:39.488Z,5.50
2023-03-11T13:42:46.721Z,6.10
2023-03-11T13:46:50.631Z,5.40
2023-03-11T13:51:07.234Z,5.13
2023-03-11T13:55:33.540Z,5.63
2023-03-11T13:59:35.503Z,5.07
2023-03-11T14:03:42.095Z,4.97
2023-03-11T14:07:43.876Z,5.67
2023-03-11T14:11:48.836Z,4.10
2023-03-11T14:16:04.746Z,4.63
2023-03-11T14:20:09.463Z,5.67
2023-03-11T14:24:19.780Z,3.97
2023-03-11T14:28:21.708Z,5.03
2023-03-11T14:32:33.362Z,5.20
2023-03-11T14:36:45.010Z,6.53
2023-03-11T14:40:47.245Z,5.53
2023-03-11T14:45:18.777Z,5.70
2023-03-11T14:49:21.798Z,5.13
2023-03-11T14:53:45.541Z,4.20
2023-03-11T14:58:01.395Z,6.27
2023-03-11T15:02:30.746Z,5.97
2023-03-11T15:06:32.890Z,4.83
2023-03-11T15:10:36.935Z,5.80
2023-03-11T15:14:51.368Z,4.23
2023-03-11T15:18:54.627Z,4.93
2023-03-11T15:23:20.824Z,4.77
2023-03-11T15:27:39.172Z,5.30
2023-03-11T15:31:42.659Z,5.77
2023-03-11T15:35:48.749Z,4.37
2023-03-11T15:39:52.256Z,4.50
2023-03-11T15:43:54.997Z,4.07
2023-03-11T15:47:56.963Z,5.60
2023-03-11T15:52:02.204Z,5.30
2023-03-11T15:56:11.791Z,4.87
2023-03-11T16:00:23.388Z,4.20
2023-03-11T16:04:28.203Z,5.13
2023-03-11T16:08:30.108Z,4.93
2023-03-11T16:12:32.817Z,6.80
2023-03-11T16:16:34.855Z,4.97
2023-03-11T16:20:58.026Z,5.03
2023-03-11T16:25:03.085Z,5.90
2023-03-11T16:29:18.226Z,4.73
2023-03-11T16:33:21.162Z,5.43
2023-03-11T16:37:22.947Z,4.77
2023-03-11T16:41:27.069Z,5.73
2023-03-11T16:45:29.134Z,5.27
2023-03-11T16:49:31.067Z,4.63
2023-03-11T16:53:32.914Z,4.73
2023-03-11T16:57:34.746Z,5.33
2023-03-11T17:01:38.823Z,5.13
2023-03-11T17:05:40.888Z,5.77
2023-03-11T17:09:42.736Z,5.73
2023-03-11T17:13:44.642Z,7.73
2023-03-11T17:17:46.905Z,7.00
2023-03-11T17:21:48.799Z,7.07
2023-03-11T17:25:53.086Z,5.50
2023-03-11T17:29:55.154Z,8.67
2023-03-11T17:33:59.161Z,7.07
2023-03-11T17:38:01.776Z,6.37
2023-03-11T17:42:03.707Z,7.53
2023-03-11T17:46:22.623Z,6.60
2023-03-11T17:50:27.354Z,5.60
2023-03-11T17:54:31.568Z,4.97
2023-03-11T17:58:33.552Z,6.47
2023-03-11T18:02:35.378Z,5.60
2023-03-11T18:06:38.232Z,5.90
2023-03-11T18:10:40.050Z,9.50
2023-03-11T18:14:41.851Z,4.80
2023-03-11T18:18:44.002Z,5.43
2023-03-11T18:22:46.750Z,4.97
2023-03-11T18:26:49.092Z,6.90
2023-03-11T18:30:51.038Z,6.63
2023-03-11T18:34:52.999Z,5.33
2023-03-11T18:39:03.286Z,7.10
2023-03-11T18:43:05.105Z,6.50
2023-03-11T18:47:07.209Z,8.77
2023-03-11T18:51:09.591Z,6.37
2023-03-11T18:55:11.715Z,7.33
2023-03-11T18:59:14.496Z,8.37
2023-03-11T19:03:16.415Z,8.30
2023-03-11T19:07:18.288Z,8.33
2023-03-11T19:11:22.080Z,8.00
2023-03-11T19:15:23.902Z,7.50
2023-03-11T19:19:25.702Z,8.43
2023-03-11T19:23:27.861Z,9.17
2023-03-11T19:27:29.677Z,12.57
2023-03-11T19:31:31.489Z,11.57
2023-03-11T19:35:37.675Z,13.37
2023-03-11T19:39:40.904Z,10.40
2023-03-11T19:43:43.836Z,10.13
2023-03-11T19:47:52.157Z,18.53
2023-03-11T19:51:56.105Z,10.17
2023-03-11T19:56:03.519Z,10.97
2023-03-11T20:00:06.714Z,9.47
2023-03-11T20:04:09.161Z,11.77
2023-03-11T20:08:17.218Z,11.07
2023-03-11T20:12:24.342Z,11.33
2023-03-11T20:16:26.628Z,9.13
2023-03-11T20:20:31.700Z,10.57
2023-03-11T20:24:37.397Z,10.20
2023-03-11T20:28:39.501Z,8.67
2023-03-11T20:32:41.422Z,8.10
2023-03-11T20:36:43.351Z,7.40
2023-03-11T20:40:45.250Z,8.80
2023-03-11T20:44:52.473Z,10.70
2023-03-11T20:48:54.477Z,8.60
2023-03-11T20:52:56.407Z,9.60
2023-03-11T20:56:58.198Z,11.20
2023-03-11T21:01:00.082Z,8.73
2023-03-11T21:05:02.142Z,9.47
2023-03-11T21:09:06.828Z,8.93
2023-03-11T21:13:08.838Z,7.83
2023-03-11T21:17:10.819Z,7.60
2023-03-11T21:21:16.428Z,7.70
2023-03-11T21:25:19.145Z,8.10
2023-03-11T21:29:20.979Z,8.23
2023-03-11T21:33:22.923Z,10.10
2023-03-11T21:37:25.767Z,9.43
2023-03-11T21:41:27.841Z,9.80
2023-03-11T21:45:29.732Z,9.80
2023-03-11T21:49:34.333Z,11.20
2023-03-11T21:53:36.109Z,8.87
2023-03-11T21:57:37.941Z,10.47
2023-03-11T22:01:39.855Z,10.03
2023-03-11T22:05:42.939Z,10.23
2023-03-11T22:09:44.644Z,9.80
2023-03-11T22:13:49.422Z,9.07
2023-03-11T22:17:51.467Z,8.67
2023-03-11T22:21:53.547Z,10.00
2023-03-11T22:26:04.569Z,8.80
2023-03-11T22:30:07.611Z,8.77
2023-03-11T22:34:09.438Z,7.60
2023-03-11T22:38:14.461Z,5.80
2023-03-11T22:42:18.902Z,8.27
2023-03-11T22:46:20.986Z,7.00
2023-03-11T22:50:22.950Z,6.93
2023-03-11T22:54:24.906Z,7.57
2023-03-11T22:58:26.730Z,7.73
2023-03-11T23:02:28.581Z,8.47
2023-03-11T23:06:30.449Z,9.33
2023-03-11T23:10:32.286Z,8.97
2023-03-11T23:14:44.652Z,9.37
2023-03-11T23:18:47.611Z,7.20
2023-03-11T23:22:49.385Z,7.63
2023-03-11T23:26:51.222Z,7.60
2023-03-11T23:30:53.197Z,6.43
2023-03-11T23:34:55.099Z,6.37
2023-03-11T23:38:57.628Z,4.53
2023-03-11T23:42:59.443Z,4.63
2023-03-11T23:47:01.351Z,7.20
2023-03-11T23:51:04.448Z,5.73
2023-03-11T23:55:07.443Z,5.40
2023-03-11T23:59:09.247Z,4.23
